createdAt,value
2018-07-28T00:01:25.095Z,25.30
2018-07-28T00:03:53.847Z,25.40
2018-07-28T00:06:22.562Z,25.80
2018-07-28T00:08:51.199Z,26.00
2018-07-28T00:11:19.966Z,25.90
2018-07-28T00:13:48.608Z,26.00
2018-07-28T00:16:17.229Z,26.10
2018-07-28T00:18:45.868Z,26.10
2018-07-28T00:21:14.434Z,26.10
2018-07-28T00:23:43.059Z,26.10
2018-07-28T00:26:18.549Z,26.00
2018-07-28T00:28:48.646Z,25.80
2018-07-28T00:31:17.406Z,25.60
2018-07-28T00:33:46.466Z,25.40
2018-07-28T00:38:43.315Z,25.40
2018-07-28T00:41:12.044Z,25.50
2018-07-28T00:43:40.674Z,25.60
2018-07-28T00:46:09.362Z,25.70
2018-07-28T00:48:38.005Z,25.80
2018-07-28T00:51:06.613Z,25.80
2018-07-28T00:53:35.406Z,25.80
2018-07-28T00:56:04.169Z,25.70
2018-07-28T00:58:33.262Z,25.70
2018-07-28T01:01:01.932Z,25.60
2018-07-28T01:03:30.667Z,25.40
2018-07-28T01:05:59.353Z,25.50
2018-07-28T01:08:28.318Z,25.40
2018-07-28T01:10:56.929Z,25.60
2018-07-28T01:13:25.561Z,25.10
2018-07-28T01:15:54.274Z,24.60
2018-07-28T01:18:22.865Z,24.50
2018-07-28T01:20:52.186Z,24.30
2018-07-28T01:23:20.877Z,24.50
2018-07-28T01:25:49.458Z,24.60
2018-07-28T01:28:18.078Z,24.60
2018-07-28T01:30:46.752Z,24.40
2018-07-28T01:33:15.401Z,24.30
2018-07-28T01:35:44.018Z,24.70
2018-07-28T01:38:12.572Z,24.70
2018-07-28T01:40:41.152Z,24.80
2018-07-28T01:43:09.758Z,24.80
2018-07-28T01:45:38.427Z,24.60
2018-07-28T01:48:07.427Z,24.70
2018-07-28T01:50:36.063Z,24.80
2018-07-28T01:53:04.676Z,24.70
2018-07-28T01:55:33.376Z,24.70
2018-07-28T01:58:02.034Z,24.60
2018-07-28T02:00:30.736Z,24.60
2018-07-28T02:02:59.340Z,24.60
2018-07-28T02:05:27.955Z,24.60
2018-07-28T02:07:56.696Z,24.70
2018-07-28T02:10:26.162Z,24.60
2018-07-28T02:12:54.853Z,24.60
2018-07-28T02:15:23.504Z,24.70
2018-07-28T02:17:52.309Z,24.70
2018-07-28T02:20:20.920Z,24.70
2018-07-28T02:22:49.544Z,24.70
2018-07-28T02:25:19.418Z,24.70
2018-07-28T02:27:48.065Z,24.60
2018-07-28T02:30:16.638Z,24.40
2018-07-28T02:32:45.283Z,24.30
2018-07-28T02:35:13.880Z,24.40
2018-07-28T02:37:42.493Z,24.30
2018-07-28T02:40:11.164Z,24.30
2018-07-28T02:42:39.804Z,24.20
2018-07-28T02:45:08.775Z,24.40
2018-07-28T02:47:37.645Z,24.40
2018-07-28T02:50:07.392Z,24.20
2018-07-28T02:52:36.396Z,24.50
2018-07-28T02:55:06.152Z,24.50
2018-07-28T02:57:34.830Z,24.50
2018-07-28T03:00:03.637Z,24.40
2018-07-28T03:02:32.778Z,24.40
2018-07-28T03:05:01.525Z,24.50
2018-07-28T03:07:30.305Z,24.50
2018-07-28T03:09:58.887Z,24.50
2018-07-28T03:12:27.494Z,24.40
2018-07-28T03:14:56.216Z,24.70
2018-07-28T03:17:24.912Z,24.80
2018-07-28T03:19:53.522Z,24.80
2018-07-28T03:22:22.593Z,24.50
2018-07-28T03:24:51.255Z,24.30
2018-07-28T03:27:19.948Z,24.40
2018-07-28T03:32:16.815Z,24.00
2018-07-28T03:34:45.417Z,23.90
2018-07-28T03:37:13.977Z,24.10
2018-07-28T03:39:42.747Z,24.20
2018-07-28T03:42:11.485Z,24.50
2018-07-28T03:44:40.187Z,24.30
2018-07-28T03:47:08.951Z,24.50
2018-07-28T03:49:37.712Z,24.60
2018-07-28T03:52:07.107Z,24.80
2018-07-28T03:54:35.718Z,24.80
2018-07-28T03:57:04.312Z,25.30
2018-07-28T03:59:33.022Z,25.30
2018-07-28T04:02:01.710Z,25.30
2018-07-28T04:04:30.535Z,24.80
2018-07-28T04:06:59.106Z,24.40
2018-07-28T04:09:27.690Z,24.50
2018-07-28T04:11:56.355Z,24.60
2018-07-28T04:14:25.526Z,24.70
2018-07-28T04:16:54.091Z,24.90
2018-07-28T04:19:23.343Z,24.80
2018-07-28T04:21:51.912Z,24.20
2018-07-28T04:24:20.540Z,23.60
2018-07-28T04:26:49.190Z,23.20
2018-07-28T04:29:17.906Z,23.00
2018-07-28T04:31:46.471Z,22.80
2018-07-28T04:34:15.120Z,22.50
2018-07-28T04:36:43.738Z,22.20
2018-07-28T04:39:14.010Z,22.10
2018-07-28T04:41:43.415Z,22.20
2018-07-28T04:44:11.978Z,22.40
2018-07-28T04:46:40.836Z,22.20
2018-07-28T04:49:09.427Z,22.30
2018-07-28T04:51:38.720Z,22.50
2018-07-28T04:54:07.422Z,22.70
2018-07-28T04:56:36.785Z,22.90
2018-07-28T04:59:05.417Z,22.80
2018-07-28T05:01:34.208Z,22.60
2018-07-28T05:04:02.974Z,22.40
2018-07-28T05:06:31.578Z,22.40
2018-07-28T05:09:00.213Z,22.40
2018-07-28T05:13:57.239Z,22.60
2018-07-28T05:16:25.869Z,22.60
2018-07-28T05:21:22.947Z,22.90
2018-07-28T05:23:51.617Z,23.00
2018-07-28T05:26:20.268Z,22.90
2018-07-28T05:28:48.919Z,23.20
2018-07-28T05:31:20.896Z,23.40
2018-07-28T05:33:49.457Z,23.50
2018-07-28T05:36:18.077Z,23.40
2018-07-28T05:38:46.678Z,23.60
2018-07-28T05:41:15.292Z,23.70
2018-07-28T05:43:44.236Z,23.80
2018-07-28T05:46:12.818Z,24.10
2018-07-28T05:48:41.916Z,24.20
2018-07-28T05:51:11.095Z,24.10
2018-07-28T05:53:40.327Z,24.00
2018-07-28T05:56:11.644Z,24.20
2018-07-28T05:58:41.306Z,24.30
2018-07-28T06:01:09.893Z,24.30
2018-07-28T06:03:38.499Z,24.60
2018-07-28T06:06:07.230Z,24.90
2018-07-28T06:08:35.850Z,25.20
2018-07-28T06:11:04.514Z,25.30
2018-07-28T06:13:33.158Z,25.40
2018-07-28T06:16:01.985Z,25.70
2018-07-28T06:18:30.765Z,25.60
2018-07-28T06:20:59.433Z,25.60
2018-07-28T06:23:28.123Z,25.80
2018-07-28T06:25:56.769Z,26.00
2018-07-28T06:28:25.357Z,26.00
2018-07-28T06:30:53.909Z,26.30
2018-07-28T06:33:22.658Z,26.70
2018-07-28T06:35:51.260Z,26.90
2018-07-28T06:38:19.839Z,26.80
2018-07-28T06:40:48.582Z,26.60
2018-07-28T06:43:17.206Z,26.60
2018-07-28T06:45:45.804Z,26.70
2018-07-28T06:48:14.472Z,26.80
2018-07-28T06:50:43.168Z,26.90
2018-07-28T06:53:11.833Z,26.90
2018-07-28T06:55:40.438Z,26.60
2018-07-28T06:58:09.108Z,26.60
2018-07-28T07:00:37.725Z,26.60
2018-07-28T07:03:06.577Z,26.40
2018-07-28T07:05:35.489Z,26.10
2018-07-28T07:08:04.150Z,25.90
2018-07-28T07:10:32.741Z,25.70
2018-07-28T07:13:01.341Z,25.80
2018-07-28T07:15:29.926Z,25.80
2018-07-28T07:17:59.230Z,26.10
2018-07-28T07:20:27.854Z,26.50
2018-07-28T07:22:56.414Z,26.80
2018-07-28T07:25:25.657Z,27.20
2018-07-28T07:27:54.216Z,27.50
2018-07-28T07:30:22.841Z,27.80
2018-07-28T07:32:51.503Z,27.90
2018-07-28T07:37:48.477Z,27.30
2018-07-28T07:42:45.553Z,26.80
2018-07-28T07:45:14.151Z,26.80
2018-07-28T07:47:42.840Z,26.80
2018-07-28T07:50:11.535Z,26.40
2018-07-28T07:52:40.347Z,25.90
2018-07-28T07:55:08.997Z,25.60
2018-07-28T07:57:37.749Z,25.40
2018-07-28T08:00:07.160Z,25.00
2018-07-28T08:02:36.041Z,24.80
2018-07-28T08:05:04.867Z,24.80
2018-07-28T08:07:33.469Z,24.80
2018-07-28T08:10:02.116Z,24.70
2018-07-28T08:12:30.761Z,24.90
2018-07-28T08:14:59.969Z,25.10
2018-07-28T08:17:28.660Z,25.30
2018-07-28T08:19:57.398Z,25.40
2018-07-28T08:22:25.991Z,25.50
2018-07-28T08:24:54.882Z,25.70
2018-07-28T08:27:23.945Z,25.90
2018-07-28T08:29:52.523Z,26.30
2018-07-28T08:32:21.408Z,26.60
2018-07-28T08:34:50.121Z,27.20
2018-07-28T08:37:18.737Z,27.50
2018-07-28T08:39:47.948Z,27.70
2018-07-28T08:42:17.553Z,27.90
2018-07-28T08:44:46.238Z,28.20
2018-07-28T08:59:32.795Z,27.40
2018-07-28T09:02:01.439Z,24.90
2018-07-28T09:04:30.701Z,25.10
2018-07-28T09:06:59.391Z,25.70
2018-07-28T09:09:28.029Z,26.60
2018-07-28T09:11:56.730Z,26.70
2018-07-28T09:14:25.459Z,26.90
2018-07-28T09:16:55.806Z,27.20
2018-07-28T09:19:24.410Z,27.70
2018-07-28T09:21:53.009Z,27.90
2018-07-28T09:24:21.668Z,28.10
2018-07-28T09:26:50.354Z,28.70
2018-07-28T09:29:19.000Z,29.40
2018-07-28T09:31:48.197Z,29.50
2018-07-28T09:34:16.797Z,29.80
2018-07-28T09:36:45.866Z,30.10
2018-07-28T09:39:14.485Z,30.20
2018-07-28T09:41:43.166Z,30.50
2018-07-28T09:44:11.817Z,30.40
2018-07-28T09:49:08.626Z,31.80
2018-07-28T09:51:37.226Z,32.20
2018-07-28T09:54:05.834Z,32.30
2018-07-28T09:59:02.770Z,33.50
2018-07-28T10:01:31.431Z,33.50
2018-07-28T10:04:01.771Z,32.40
2018-07-28T10:06:30.533Z,31.20
2018-07-28T10:08:59.270Z,31.10
2018-07-28T10:11:27.928Z,30.10
2018-07-28T10:13:56.658Z,29.00
2018-07-28T10:16:25.293Z,29.10
2018-07-28T10:18:54.043Z,30.60
2018-07-28T10:21:22.760Z,31.60
2018-07-28T10:23:51.354Z,32.70
2018-07-28T10:26:19.937Z,33.60
2018-07-28T10:28:48.559Z,34.20
2018-07-28T10:31:17.216Z,34.40
2018-07-28T10:33:45.799Z,35.40
2018-07-28T10:36:14.440Z,34.30
2018-07-28T10:38:42.998Z,32.70
2018-07-28T10:41:11.618Z,31.80
2018-07-28T10:43:40.228Z,30.90
2018-07-28T10:46:08.871Z,31.00
2018-07-28T10:51:06.027Z,31.70
2018-07-28T10:53:34.659Z,31.90
2018-07-28T10:56:03.515Z,32.50
2018-07-28T10:58:32.108Z,31.80
2018-07-28T11:01:00.796Z,33.30
2018-07-28T11:03:29.427Z,35.40
2018-07-28T11:05:58.194Z,35.60
2018-07-28T11:08:27.841Z,34.40
2018-07-28T11:10:56.445Z,34.80
2018-07-28T11:13:25.228Z,35.80
2018-07-28T11:15:53.807Z,34.70
2018-07-28T11:18:22.458Z,33.30
2018-07-28T11:20:51.200Z,33.20
2018-07-28T11:25:53.693Z,33.60
2018-07-28T11:28:22.377Z,33.70
2018-07-28T11:33:30.748Z,32.70
2018-07-28T11:36:10.485Z,32.60
2018-07-28T11:38:50.194Z,32.80
2018-07-28T11:41:29.920Z,32.70
2018-07-28T11:44:09.809Z,33.70
2018-07-28T11:46:38.470Z,33.50
2018-07-28T11:49:07.059Z,34.00
2018-07-28T11:54:04.056Z,33.90
2018-07-28T11:56:32.766Z,33.20
2018-07-28T11:59:01.440Z,31.60
2018-07-28T12:01:30.070Z,31.00
2018-07-28T12:03:58.784Z,31.80
2018-07-28T12:08:55.744Z,31.20
2018-07-28T12:13:52.625Z,29.20
2018-07-28T12:16:21.346Z,28.80
2018-07-28T12:18:50.022Z,28.90
2018-07-28T12:21:18.740Z,28.90
2018-07-28T12:23:47.310Z,29.00
2018-07-28T12:26:15.870Z,29.50
2018-07-28T12:28:45.094Z,29.90
2018-07-28T12:31:13.723Z,30.20
2018-07-28T12:33:42.287Z,30.40
2018-07-28T12:36:11.016Z,30.60
2018-07-28T12:38:39.677Z,31.50
2018-07-28T12:41:08.577Z,32.80
2018-07-28T12:43:37.162Z,34.70
2018-07-28T12:46:05.796Z,36.30
2018-07-28T12:48:34.361Z,37.20
2018-07-28T12:51:03.043Z,35.70
2018-07-28T12:53:32.505Z,35.40
2018-07-28T12:56:01.142Z,34.90
2018-07-28T12:58:29.709Z,35.50
2018-07-28T13:00:58.456Z,35.20
2018-07-28T13:03:27.071Z,33.40
2018-07-28T13:05:55.624Z,32.50
2018-07-28T13:08:24.333Z,33.20
2018-07-28T13:10:52.927Z,33.70
2018-07-28T13:13:21.511Z,32.40
2018-07-28T13:15:50.113Z,32.40
2018-07-28T13:18:18.916Z,33.20
2018-07-28T13:20:47.538Z,32.80
2018-07-28T13:23:16.147Z,34.10
2018-07-28T13:25:44.860Z,34.80
2018-07-28T13:28:14.189Z,35.50
2018-07-28T13:30:42.805Z,35.70
2018-07-28T13:33:11.323Z,35.20
2018-07-28T13:35:39.885Z,35.20
2018-07-28T13:38:08.606Z,35.50
2018-07-28T13:40:37.212Z,35.70
2018-07-28T13:43:06.657Z,35.30
2018-07-28T13:45:35.487Z,36.20
2018-07-28T13:48:04.153Z,36.80
2018-07-28T13:50:32.759Z,36.60
2018-07-28T13:53:01.468Z,35.70
2018-07-28T13:55:30.126Z,34.30
2018-07-28T13:57:58.746Z,32.50
2018-07-28T14:00:28.022Z,33.10
2018-07-28T14:02:56.495Z,32.50
2018-07-28T14:05:25.053Z,31.20
2018-07-28T14:07:53.620Z,31.40
2018-07-28T14:12:50.488Z,30.00
2018-07-28T14:15:19.057Z,30.00
2018-07-28T14:17:47.672Z,30.30
2018-07-28T14:20:16.281Z,30.70
2018-07-28T14:22:44.969Z,30.10
2018-07-28T14:25:13.627Z,29.90
2018-07-28T14:27:42.231Z,30.90
2018-07-28T14:30:10.913Z,31.80
2018-07-28T14:32:39.538Z,32.00
2018-07-28T14:35:08.194Z,32.00
2018-07-28T14:37:36.877Z,31.40
2018-07-28T14:40:05.484Z,31.40
2018-07-28T14:42:34.934Z,30.40
2018-07-28T14:45:03.517Z,29.80
2018-07-28T14:47:32.053Z,30.40
2018-07-28T14:50:00.661Z,30.90
2018-07-28T14:52:29.209Z,30.90
2018-07-28T14:54:58.608Z,31.10
2018-07-28T14:57:27.189Z,31.10
2018-07-28T14:59:56.325Z,30.90
2018-07-28T15:02:25.006Z,31.50
2018-07-28T15:04:53.595Z,32.50
2018-07-28T15:07:22.397Z,32.50
2018-07-28T15:09:50.924Z,33.40
2018-07-28T15:12:19.521Z,33.30
2018-07-28T15:14:48.460Z,33.40
2018-07-28T15:17:17.118Z,33.50
2018-07-28T15:19:45.969Z,33.20
2018-07-28T15:22:14.680Z,32.70
2018-07-28T15:24:43.392Z,31.60
2018-07-28T15:27:12.152Z,31.70
2018-07-28T15:29:40.854Z,32.00
2018-07-28T15:32:09.527Z,31.60
2018-07-28T15:34:38.230Z,31.90
2018-07-28T15:37:06.856Z,31.70
2018-07-28T15:39:35.512Z,30.70
2018-07-28T15:42:04.157Z,30.60
2018-07-28T15:44:32.962Z,30.80
2018-07-28T15:47:01.647Z,31.50
2018-07-28T15:49:31.082Z,31.10
2018-07-28T15:52:00.411Z,30.40
2018-07-28T15:54:29.066Z,30.70
2018-07-28T15:56:57.831Z,30.70
2018-07-28T15:59:26.413Z,30.30
2018-07-28T16:01:55.171Z,30.30
2018-07-28T16:04:23.746Z,30.40
2018-07-28T16:06:52.338Z,30.30
2018-07-28T16:09:21.025Z,30.40
2018-07-28T16:11:50.354Z,30.50
2018-07-28T16:14:19.606Z,30.40
2018-07-28T16:19:16.465Z,30.20
2018-07-28T16:21:45.103Z,30.10
2018-07-28T16:24:13.761Z,29.90
2018-07-28T16:26:42.331Z,30.00
2018-07-28T16:29:11.005Z,29.80
2018-07-28T16:31:39.592Z,29.60
2018-07-28T16:34:08.328Z,29.20
2018-07-28T16:36:36.927Z,28.90
2018-07-28T16:39:07.924Z,28.40
2018-07-28T16:41:36.793Z,28.30
2018-07-28T16:44:05.400Z,28.10
2018-07-28T16:46:33.998Z,28.00
2018-07-28T16:49:02.646Z,27.90
2018-07-28T16:51:31.202Z,27.70
2018-07-28T16:53:59.787Z,27.60
2018-07-28T16:56:28.411Z,27.30
2018-07-28T16:58:57.220Z,27.30
2018-07-28T17:01:25.899Z,27.20
2018-07-28T17:03:54.470Z,27.10
2018-07-28T17:08:51.241Z,26.80
2018-07-28T17:13:48.023Z,26.40
2018-07-28T17:16:16.579Z,26.20
2018-07-28T17:21:13.458Z,26.10
2018-07-28T17:23:41.974Z,26.10
2018-07-28T17:26:11.531Z,25.90
2018-07-28T17:28:40.162Z,25.70
2018-07-28T17:31:08.995Z,25.70
2018-07-28T17:33:37.562Z,25.70
2018-07-28T17:36:06.762Z,25.50
2018-07-28T17:38:35.360Z,25.50
2018-07-28T17:41:04.016Z,25.50
2018-07-28T17:43:32.564Z,25.40
2018-07-28T17:46:01.130Z,25.30
2018-07-28T17:48:29.727Z,25.40
2018-07-28T17:50:58.485Z,25.30
2018-07-28T17:53:27.047Z,25.20
2018-07-28T17:55:56.533Z,25.00
2018-07-28T17:58:25.437Z,25.00
2018-07-28T18:00:54.940Z,24.90
2018-07-28T18:03:23.976Z,24.80
2018-07-28T18:05:52.707Z,24.70
2018-07-28T18:08:21.638Z,24.70
2018-07-28T18:10:50.487Z,24.80
2018-07-28T18:13:19.324Z,24.80
2018-07-28T18:15:48.496Z,24.70
2018-07-28T18:18:17.166Z,24.60
2018-07-28T18:20:46.053Z,24.40
2018-07-28T18:23:14.855Z,24.40
2018-07-28T18:25:43.762Z,24.30
2018-07-28T18:28:12.245Z,24.30
2018-07-28T18:30:41.252Z,24.10
2018-07-28T18:33:10.120Z,24.10
2018-07-28T18:35:38.895Z,24.00
2018-07-28T18:38:07.982Z,24.00
2018-07-28T18:40:36.882Z,23.80
2018-07-28T18:43:05.663Z,23.80
2018-07-28T18:45:34.162Z,23.80
2018-07-28T18:48:02.815Z,23.70
2018-07-28T18:50:31.425Z,23.60
2018-07-28T18:52:59.980Z,23.60
2018-07-28T18:55:28.520Z,23.50
2018-07-28T18:57:57.129Z,23.50
2018-07-28T19:00:25.641Z,23.40
2018-07-28T19:02:54.310Z,23.00
2018-07-28T19:07:51.018Z,22.50
2018-07-28T19:10:19.598Z,22.10
2018-07-28T19:12:53.388Z,22.00
2018-07-28T19:15:21.924Z,21.70
2018-07-28T19:17:55.917Z,21.50
2018-07-28T19:20:24.515Z,21.30
2018-07-28T19:22:58.506Z,21.10
2018-07-28T19:25:27.031Z,21.00
2018-07-28T19:28:01.081Z,21.00
2018-07-28T19:30:29.672Z,20.80
2018-07-28T19:32:58.246Z,20.60
2018-07-28T19:35:31.008Z,20.50
2018-07-28T19:37:59.565Z,20.30
2018-07-28T19:40:28.095Z,20.20
2018-07-28T19:42:56.626Z,20.00
2018-07-28T19:45:25.141Z,19.80
2018-07-28T19:47:53.669Z,19.60
2018-07-28T19:50:22.236Z,19.40
2018-07-28T19:52:50.864Z,19.30
2018-07-28T19:55:19.584Z,19.10
2018-07-28T19:57:48.111Z,18.90
2018-07-28T20:00:16.623Z,18.70
2018-07-28T20:02:45.122Z,18.50
2018-07-28T20:05:13.675Z,18.30
2018-07-28T20:07:42.201Z,18.30
2018-07-28T20:10:11.094Z,18.20
2018-07-28T20:12:39.963Z,18.10
2018-07-28T20:15:08.642Z,17.90
2018-07-28T20:17:37.145Z,17.80
2018-07-28T20:20:06.129Z,17.70
2018-07-28T20:22:34.651Z,17.50
2018-07-28T20:25:03.228Z,17.40
2018-07-28T20:27:31.931Z,17.20
2018-07-28T20:30:00.503Z,17.10
2018-07-28T20:32:29.018Z,16.90
2018-07-28T20:34:57.572Z,16.80
2018-07-28T20:37:26.150Z,16.80
2018-07-28T20:39:54.762Z,16.70
2018-07-28T20:42:23.327Z,16.60
2018-07-28T20:44:52.565Z,16.60
2018-07-28T20:47:21.778Z,16.60
2018-07-28T20:49:50.315Z,16.40
2018-07-28T20:52:18.895Z,16.50
2018-07-28T20:54:47.403Z,16.50
2018-07-28T21:07:05.640Z,16.40
2018-07-28T21:09:34.121Z,16.30
2018-07-28T21:12:02.670Z,15.80
2018-07-28T21:14:31.190Z,16.00
2018-07-28T21:16:59.711Z,16.10
2018-07-28T21:19:28.260Z,16.10
2018-07-28T21:21:56.982Z,16.10
2018-07-28T21:24:25.605Z,16.10
2018-07-28T21:26:54.198Z,16.00
2018-07-28T21:29:22.803Z,16.00
2018-07-28T21:31:51.385Z,15.90
2018-07-28T21:34:19.926Z,15.80
2018-07-28T21:36:48.497Z,15.90
2018-07-28T21:39:17.091Z,15.80
2018-07-28T21:41:45.618Z,15.70
2018-07-28T21:44:14.159Z,15.70
2018-07-28T21:46:42.724Z,15.80
2018-07-28T21:49:11.411Z,15.80
2018-07-28T21:51:40.076Z,15.90
2018-07-28T21:54:08.669Z,15.80
2018-07-28T21:56:37.194Z,15.90
2018-07-28T21:59:05.897Z,15.90
2018-07-28T22:01:34.586Z,15.90
2018-07-28T22:04:03.852Z,15.80
2018-07-28T22:06:34.103Z,15.80
2018-07-28T22:09:02.724Z,15.80
2018-07-28T22:11:31.369Z,16.00
2018-07-28T22:13:59.931Z,16.00
2018-07-28T22:16:28.501Z,15.90
2018-07-28T22:18:57.058Z,15.80
2018-07-28T22:21:25.673Z,15.90
2018-07-28T22:23:54.328Z,15.90
2018-07-28T22:26:22.816Z,15.80
2018-07-28T22:28:51.523Z,15.80
2018-07-28T22:31:20.137Z,15.80
2018-07-28T22:33:48.682Z,15.80
2018-07-28T22:36:17.383Z,15.70
2018-07-28T22:38:46.070Z,15.80
2018-07-28T22:41:14.800Z,15.70
2018-07-28T22:43:43.393Z,15.80
2018-07-28T22:46:12.567Z,15.80
2018-07-28T22:48:41.225Z,15.80
2018-07-28T22:51:09.929Z,15.80
2018-07-28T22:53:38.824Z,15.80
2018-07-28T22:56:07.719Z,15.80
2018-07-28T22:58:36.443Z,15.70
2018-07-28T23:01:05.086Z,15.70
2018-07-28T23:03:33.812Z,15.60
2018-07-28T23:06:02.550Z,15.60
2018-07-28T23:08:31.123Z,15.50
2018-07-28T23:10:59.735Z,15.40
2018-07-28T23:13:28.475Z,15.40
2018-07-28T23:15:57.058Z,15.30
2018-07-28T23:18:25.741Z,15.40
2018-07-28T23:20:54.378Z,15.40
2018-07-28T23:23:23.146Z,15.50
2018-07-28T23:25:52.169Z,15.60
2018-07-28T23:28:20.868Z,15.60
2018-07-28T23:30:49.627Z,15.70
2018-07-28T23:33:18.323Z,15.70
2018-07-28T23:35:46.992Z,15.80
2018-07-28T23:38:15.547Z,15.80
2018-07-28T23:40:44.131Z,15.80
2018-07-28T23:43:12.711Z,15.80
2018-07-28T23:45:41.284Z,15.70
2018-07-28T23:48:09.839Z,15.70
2018-07-28T23:50:38.527Z,15.80
2018-07-28T23:53:07.141Z,15.80
2018-07-28T23:55:35.841Z,15.80
2018-07-28T23:58:04.519Z,15.70
